createdAt,value
2018-05-31T00:01:32.349Z,78.24
2018-05-31T00:03:59.908Z,78.42
2018-05-31T00:06:27.529Z,78.68
2018-05-31T00:08:55.141Z,78.59
2018-05-31T00:11:22.729Z,78.64
2018-05-31T00:13:50.344Z,78.55
2018-05-31T00:16:17.915Z,78.70
2018-05-31T00:18:45.530Z,78.82
2018-05-31T00:21:13.088Z,79.00
2018-05-31T00:23:40.970Z,78.85
2018-05-31T00:26:08.541Z,79.20
2018-05-31T00:28:36.165Z,79.50
2018-05-31T00:31:03.735Z,79.73
2018-05-31T00:33:31.296Z,79.98
2018-05-31T00:35:58.861Z,80.42
2018-05-31T00:38:26.428Z,80.63
2018-05-31T00:40:54.064Z,80.48
2018-05-31T00:43:21.621Z,80.30
2018-05-31T00:45:49.225Z,80.00
2018-05-31T00:48:16.848Z,79.75
2018-05-31T00:50:44.417Z,79.77
2018-05-31T00:53:12.090Z,79.83
2018-05-31T00:58:41.615Z,80.06
2018-05-31T01:01:09.301Z,80.26
2018-05-31T01:03:36.918Z,80.27
2018-05-31T01:06:04.527Z,80.36
2018-05-31T01:08:32.149Z,80.25
2018-05-31T01:10:59.762Z,80.30
2018-05-31T01:13:27.485Z,80.41
2018-05-31T01:15:55.051Z,80.87
2018-05-31T01:18:22.609Z,80.83
2018-05-31T01:20:50.274Z,80.92
2018-05-31T01:23:17.897Z,81.08
2018-05-31T01:25:45.458Z,81.40
2018-05-31T01:28:13.073Z,81.69
2018-05-31T01:30:40.692Z,81.80
2018-05-31T01:33:08.297Z,81.71
2018-05-31T01:35:35.939Z,81.82
2018-05-31T01:38:15.156Z,81.81
2018-05-31T01:40:42.774Z,81.94
2018-05-31T01:43:10.445Z,82.09
2018-05-31T01:45:38.023Z,82.20
2018-05-31T01:48:05.615Z,82.48
2018-05-31T01:50:33.186Z,82.28
2018-05-31T01:53:00.797Z,82.65
2018-05-31T01:55:28.361Z,83.01
2018-05-31T01:57:55.966Z,83.62
2018-05-31T02:00:23.585Z,83.30
2018-05-31T02:02:51.214Z,83.15
2018-05-31T02:05:18.766Z,83.26
2018-05-31T02:07:46.395Z,83.38
2018-05-31T02:10:13.948Z,83.41
2018-05-31T02:12:41.618Z,83.80
2018-05-31T02:15:09.159Z,83.77
2018-05-31T02:17:36.709Z,84.04
2018-05-31T02:20:04.389Z,84.65
2018-05-31T02:22:31.956Z,84.92
2018-05-31T02:24:59.650Z,85.41
2018-05-31T02:27:27.268Z,85.93
2018-05-31T02:29:54.882Z,85.80
2018-05-31T02:32:22.429Z,86.13
2018-05-31T02:34:49.976Z,86.56
2018-05-31T02:37:17.565Z,86.94
2018-05-31T02:39:45.222Z,87.65
2018-05-31T02:42:12.873Z,87.65
2018-05-31T02:44:40.421Z,87.80
2018-05-31T02:47:08.153Z,87.84
2018-05-31T02:49:35.782Z,87.81
2018-05-31T02:52:03.347Z,87.73
2018-05-31T02:54:30.920Z,87.52
2018-05-31T02:56:58.530Z,87.67
2018-05-31T02:59:26.227Z,88.14
2018-05-31T03:01:53.813Z,88.46
2018-05-31T03:04:21.498Z,88.75
2018-05-31T03:06:49.182Z,89.11
2018-05-31T03:09:16.750Z,88.98
2018-05-31T03:11:44.312Z,88.88
2018-05-31T03:14:11.864Z,88.88
2018-05-31T03:16:39.553Z,88.77
2018-05-31T03:19:07.117Z,88.41
2018-05-31T03:21:34.733Z,87.89
2018-05-31T03:24:02.333Z,87.51
2018-05-31T03:26:29.898Z,87.14
2018-05-31T03:28:57.520Z,86.51
2018-05-31T03:31:25.089Z,86.05
2018-05-31T03:33:52.660Z,85.52
2018-05-31T03:36:20.262Z,84.79
2018-05-31T03:38:47.930Z,84.15
2018-05-31T03:41:15.480Z,83.47
2018-05-31T03:43:43.157Z,82.70
2018-05-31T03:46:10.721Z,82.15
2018-05-31T03:48:38.268Z,80.47
2018-05-31T03:51:05.840Z,78.51
2018-05-31T03:53:33.457Z,77.20
2018-05-31T03:56:01.141Z,76.48
2018-05-31T03:58:28.793Z,75.13
2018-05-31T04:00:56.487Z,74.11
2018-05-31T04:03:24.052Z,71.22
2018-05-31T04:05:51.597Z,66.98
2018-05-31T04:08:19.224Z,59.03
2018-05-31T04:10:46.790Z,51.60
2018-05-31T04:13:14.439Z,47.69
2018-05-31T04:15:42.116Z,43.52
2018-05-31T04:18:09.744Z,41.15
2018-05-31T04:20:37.320Z,38.42
2018-05-31T04:23:04.893Z,37.37
2018-05-31T04:25:32.513Z,36.07
2018-05-31T04:28:00.072Z,35.13
2018-05-31T04:30:27.749Z,34.28
2018-05-31T04:32:55.304Z,33.18
2018-05-31T04:35:23.018Z,32.46
2018-05-31T04:37:50.589Z,32.87
2018-05-31T04:40:18.145Z,31.35
2018-05-31T04:42:45.712Z,30.93
2018-05-31T04:45:13.337Z,30.09
2018-05-31T04:47:41.013Z,30.82
2018-05-31T04:50:08.617Z,30.79
2018-05-31T04:52:36.233Z,30.68
2018-05-31T04:55:03.848Z,31.47
2018-05-31T04:57:31.413Z,31.13
2018-05-31T04:59:58.972Z,30.54
2018-05-31T05:02:26.546Z,29.76
2018-05-31T05:04:54.202Z,29.22
2018-05-31T05:07:21.805Z,28.29
2018-05-31T05:09:49.466Z,28.43
2018-05-31T05:12:17.190Z,27.93
2018-05-31T05:14:44.760Z,28.47
2018-05-31T05:17:12.373Z,27.45
2018-05-31T05:19:39.981Z,28.07
2018-05-31T05:22:07.657Z,27.75
2018-05-31T05:24:35.208Z,28.14
2018-05-31T05:27:02.752Z,28.58
2018-05-31T05:29:30.368Z,28.64
2018-05-31T05:31:58.030Z,29.09
2018-05-31T05:34:25.744Z,28.62
2018-05-31T05:36:53.297Z,28.12
2018-05-31T05:39:21.884Z,27.90
2018-05-31T05:41:49.493Z,28.00
2018-05-31T05:44:17.113Z,28.02
2018-05-31T05:46:44.668Z,27.43
2018-05-31T05:49:12.216Z,27.10
2018-05-31T05:51:39.768Z,26.91
2018-05-31T05:54:07.437Z,27.71
2018-05-31T05:56:35.044Z,27.27
2018-05-31T05:59:02.641Z,27.05
2018-05-31T06:01:30.285Z,26.95
2018-05-31T06:03:57.844Z,26.87
2018-05-31T06:06:25.453Z,26.67
2018-05-31T06:08:53.097Z,26.86
2018-05-31T06:11:20.713Z,27.23
2018-05-31T06:13:48.424Z,27.40
2018-05-31T06:16:16.095Z,26.86
2018-05-31T06:18:43.648Z,27.33
2018-05-31T06:21:11.256Z,27.94
2018-05-31T06:23:38.861Z,28.33
2018-05-31T06:26:06.534Z,29.83
2018-05-31T06:28:34.101Z,28.98
2018-05-31T06:31:01.773Z,27.81
2018-05-31T06:33:29.360Z,27.40
2018-05-31T06:35:56.965Z,28.60
2018-05-31T06:38:24.512Z,30.81
2018-05-31T06:40:52.044Z,31.56
2018-05-31T06:43:19.717Z,29.51
2018-05-31T06:45:47.367Z,29.09
2018-05-31T06:48:15.018Z,29.25
2018-05-31T06:50:42.645Z,29.42
2018-05-31T06:53:10.289Z,32.03
2018-05-31T06:55:37.954Z,32.10
2018-05-31T06:58:05.508Z,33.62
2018-05-31T07:00:33.136Z,33.23
2018-05-31T07:03:00.725Z,31.90
2018-05-31T07:05:28.326Z,32.04
2018-05-31T07:07:55.860Z,32.78
2018-05-31T07:10:23.392Z,32.33
2018-05-31T07:12:51.000Z,32.98
2018-05-31T07:15:18.537Z,31.94
2018-05-31T07:17:46.143Z,32.34
2018-05-31T07:20:13.733Z,33.44
2018-05-31T07:22:41.320Z,35.73
2018-05-31T07:25:08.861Z,35.75
2018-05-31T07:27:36.478Z,35.58
2018-05-31T07:30:04.269Z,34.80
2018-05-31T07:32:31.877Z,35.43
2018-05-31T07:34:59.538Z,32.98
2018-05-31T07:37:27.145Z,32.62
2018-05-31T07:39:54.801Z,32.18
2018-05-31T07:42:22.353Z,31.83
2018-05-31T07:44:50.013Z,31.28
2018-05-31T07:47:17.552Z,32.03
2018-05-31T07:49:45.080Z,31.16
2018-05-31T07:52:12.620Z,32.13
2018-05-31T07:54:40.328Z,32.98
2018-05-31T07:57:08.004Z,33.92
2018-05-31T07:59:35.605Z,33.90
2018-05-31T08:02:03.208Z,34.38
2018-05-31T08:04:30.756Z,34.88
2018-05-31T08:06:58.397Z,36.22
2018-05-31T08:09:25.997Z,32.39
2018-05-31T08:11:53.541Z,32.75
2018-05-31T08:14:21.138Z,35.19
2018-05-31T08:16:48.794Z,36.13
2018-05-31T08:19:16.347Z,35.82
2018-05-31T08:21:43.948Z,34.72
2018-05-31T08:24:11.610Z,34.44
2018-05-31T08:26:39.220Z,35.18
2018-05-31T08:29:06.813Z,34.71
2018-05-31T08:31:34.518Z,35.31
2018-05-31T08:34:02.112Z,34.35
2018-05-31T08:36:29.709Z,33.52
2018-05-31T08:38:57.301Z,33.38
2018-05-31T08:41:24.844Z,31.83
2018-05-31T08:43:52.577Z,32.60
2018-05-31T08:46:20.178Z,31.51
2018-05-31T08:48:47.774Z,31.69
2018-05-31T08:51:15.374Z,31.83
2018-05-31T08:53:42.921Z,31.62
2018-05-31T08:56:10.458Z,32.35
2018-05-31T08:58:37.992Z,32.42
2018-05-31T09:01:05.634Z,32.31
2018-05-31T09:03:33.180Z,31.41
2018-05-31T09:06:00.719Z,31.09
2018-05-31T09:08:28.256Z,33.21
2018-05-31T09:10:55.848Z,31.42
2018-05-31T09:13:23.451Z,29.60
2018-05-31T09:15:50.991Z,31.46
2018-05-31T09:18:18.532Z,30.93
2018-05-31T09:20:46.072Z,32.35
2018-05-31T09:23:13.662Z,32.51
2018-05-31T09:25:41.331Z,32.82
2018-05-31T09:28:08.991Z,29.45
2018-05-31T09:30:36.593Z,30.75
2018-05-31T09:33:04.140Z,29.84
2018-05-31T09:35:31.678Z,28.81
2018-05-31T09:37:59.325Z,28.52
2018-05-31T09:40:26.861Z,28.61
2018-05-31T09:42:54.396Z,30.94
2018-05-31T09:45:21.988Z,30.51
2018-05-31T09:47:49.589Z,26.85
2018-05-31T09:50:17.188Z,29.57
2018-05-31T09:52:44.775Z,25.80
2018-05-31T09:55:12.309Z,26.63
2018-05-31T09:57:39.840Z,25.03
2018-05-31T10:00:07.373Z,24.36
2018-05-31T10:02:35.020Z,27.29
2018-05-31T10:05:02.568Z,26.46
2018-05-31T10:07:30.148Z,24.01
2018-05-31T10:09:57.753Z,27.47
2018-05-31T10:12:25.288Z,25.49
2018-05-31T10:14:52.892Z,23.56
2018-05-31T10:17:20.482Z,23.51
2018-05-31T10:19:48.028Z,23.37
2018-05-31T10:22:15.616Z,25.72
2018-05-31T10:24:43.159Z,23.33
2018-05-31T10:27:10.753Z,23.61
2018-05-31T10:29:38.293Z,24.45
2018-05-31T10:32:05.990Z,24.41
2018-05-31T10:34:33.672Z,24.47
2018-05-31T10:37:01.215Z,23.48
2018-05-31T10:39:28.759Z,23.68
2018-05-31T10:41:56.320Z,22.67
2018-05-31T10:44:23.945Z,24.09
2018-05-31T10:46:51.545Z,22.65
2018-05-31T10:49:19.205Z,23.09
2018-05-31T10:51:46.740Z,23.99
2018-05-31T10:54:14.387Z,23.50
2018-05-31T10:56:42.045Z,23.96
2018-05-31T10:59:09.608Z,22.61
2018-05-31T11:01:37.153Z,23.49
2018-05-31T11:04:04.693Z,21.85
2018-05-31T11:06:32.329Z,21.83
2018-05-31T11:08:59.912Z,21.65
2018-05-31T11:11:27.569Z,22.46
2018-05-31T11:13:55.171Z,22.71
2018-05-31T11:16:22.818Z,22.04
2018-05-31T11:18:50.364Z,21.51
2018-05-31T11:21:17.967Z,21.13
2018-05-31T11:23:45.551Z,20.44
2018-05-31T11:26:13.080Z,20.39
2018-05-31T11:28:40.681Z,20.54
2018-05-31T11:31:08.336Z,20.92
2018-05-31T11:33:36.074Z,21.37
2018-05-31T11:36:03.681Z,20.20
2018-05-31T11:38:31.266Z,18.90
2018-05-31T11:40:58.904Z,19.01
2018-05-31T11:43:26.505Z,19.34
2018-05-31T11:45:54.108Z,18.39
2018-05-31T11:48:21.769Z,19.16
2018-05-31T11:50:49.427Z,19.35
2018-05-31T11:53:17.037Z,18.18
2018-05-31T11:55:44.600Z,19.99
2018-05-31T11:58:12.318Z,17.21
2018-05-31T12:00:39.960Z,17.48
2018-05-31T12:03:07.543Z,17.56
2018-05-31T12:05:35.145Z,17.58
2018-05-31T12:08:02.798Z,18.61
2018-05-31T12:10:30.405Z,18.93
2018-05-31T12:12:57.953Z,18.09
2018-05-31T12:15:25.541Z,17.92
2018-05-31T12:17:53.085Z,19.23
2018-05-31T12:20:20.821Z,18.29
2018-05-31T12:22:48.474Z,19.11
2018-05-31T12:25:16.022Z,18.97
2018-05-31T12:27:43.690Z,19.87
2018-05-31T12:30:11.333Z,19.50
2018-05-31T12:32:38.942Z,18.21
2018-05-31T12:35:06.473Z,17.66
2018-05-31T12:37:34.075Z,17.42
2018-05-31T12:40:01.664Z,17.61
2018-05-31T12:42:29.266Z,17.70
2018-05-31T12:44:56.904Z,18.90
2018-05-31T12:47:24.444Z,18.53
2018-05-31T12:49:52.029Z,17.60
2018-05-31T12:52:19.573Z,17.22
2018-05-31T12:54:47.177Z,17.08
2018-05-31T12:57:15.617Z,16.84
2018-05-31T12:59:43.265Z,17.66
2018-05-31T13:02:10.826Z,18.46
2018-05-31T13:04:38.360Z,18.73
2018-05-31T13:07:05.906Z,17.76
2018-05-31T13:09:33.442Z,18.13
2018-05-31T13:12:01.146Z,17.36
2018-05-31T13:14:28.697Z,17.68
2018-05-31T13:16:56.297Z,18.65
2018-05-31T13:19:24.270Z,18.71
2018-05-31T13:21:51.862Z,18.86
2018-05-31T13:24:19.473Z,18.83
2018-05-31T13:26:47.012Z,18.92
2018-05-31T13:29:14.605Z,20.67
2018-05-31T13:31:42.145Z,19.97
2018-05-31T13:34:09.760Z,19.17
2018-05-31T13:36:37.309Z,18.43
2018-05-31T13:39:07.728Z,19.04
2018-05-31T13:41:35.321Z,19.12
2018-05-31T13:44:03.799Z,19.30
2018-05-31T13:46:31.442Z,19.22
2018-05-31T13:48:59.150Z,19.82
2018-05-31T13:51:26.716Z,21.37
2018-05-31T13:53:54.264Z,21.49
2018-05-31T13:56:21.862Z,21.89
2018-05-31T13:58:49.404Z,21.21
2018-05-31T14:01:17.360Z,22.18
2018-05-31T14:03:44.941Z,22.22
2018-05-31T14:06:13.394Z,23.69
2018-05-31T14:08:41.050Z,24.70
2018-05-31T14:11:08.644Z,25.18
2018-05-31T14:13:36.241Z,26.10
2018-05-31T14:16:03.797Z,26.10
2018-05-31T14:18:31.450Z,26.72
2018-05-31T14:20:59.117Z,28.03
2018-05-31T14:23:26.696Z,28.90
2018-05-31T14:25:54.232Z,28.75
2018-05-31T14:28:21.833Z,28.58
2018-05-31T14:30:49.370Z,28.98
2018-05-31T14:33:16.969Z,28.56
2018-05-31T14:35:44.596Z,29.33
2018-05-31T14:38:12.319Z,29.66
2018-05-31T14:40:39.852Z,30.16
2018-05-31T14:43:07.483Z,29.72
2018-05-31T14:45:35.022Z,29.99
2018-05-31T14:48:02.679Z,29.55
2018-05-31T14:50:30.949Z,28.80
2018-05-31T14:52:58.541Z,29.52
2018-05-31T14:55:26.287Z,28.71
2018-05-31T14:57:53.905Z,28.67
2018-05-31T15:00:21.438Z,29.00
2018-05-31T15:02:48.976Z,28.00
2018-05-31T15:05:17.184Z,28.07
2018-05-31T15:07:44.889Z,26.76
2018-05-31T15:10:12.514Z,27.35
2018-05-31T15:12:40.066Z,28.25
2018-05-31T15:15:08.512Z,28.59
2018-05-31T15:17:36.057Z,27.87
2018-05-31T15:20:03.717Z,28.27
2018-05-31T15:22:31.265Z,28.71
2018-05-31T15:25:00.195Z,28.53
2018-05-31T15:27:27.808Z,27.42
2018-05-31T15:29:56.210Z,27.84
2018-05-31T15:32:23.816Z,27.50
2018-05-31T15:34:51.417Z,27.45
2018-05-31T15:37:19.093Z,25.87
2018-05-31T15:39:47.793Z,26.64
2018-05-31T15:42:16.120Z,27.98
2018-05-31T15:44:44.069Z,27.93
2018-05-31T15:47:12.570Z,26.98
2018-05-31T15:49:40.189Z,26.98
2018-05-31T15:52:08.674Z,26.92
2018-05-31T15:54:36.225Z,27.84
2018-05-31T15:57:04.797Z,27.94
2018-05-31T15:59:32.399Z,27.45
2018-05-31T16:01:59.993Z,27.21
2018-05-31T16:04:27.590Z,26.75
2018-05-31T16:06:55.130Z,27.62
2018-05-31T16:09:22.661Z,28.04
2018-05-31T16:11:51.939Z,28.22
2018-05-31T16:14:19.609Z,29.95
2018-05-31T16:16:47.169Z,28.78
2018-05-31T16:19:14.776Z,29.24
2018-05-31T16:21:42.429Z,29.71
2018-05-31T16:24:10.041Z,29.72
2018-05-31T16:26:39.660Z,30.04
2018-05-31T16:29:07.308Z,29.72
2018-05-31T16:31:34.888Z,29.92
2018-05-31T16:34:02.584Z,30.04
2018-05-31T16:36:30.865Z,30.74
2018-05-31T16:38:59.273Z,30.54
2018-05-31T16:41:27.662Z,31.43
2018-05-31T16:43:55.266Z,30.90
2018-05-31T16:46:22.811Z,31.79
2018-05-31T16:48:51.142Z,31.37
2018-05-31T16:51:18.681Z,32.08
2018-05-31T16:53:46.297Z,31.97
2018-05-31T16:56:13.942Z,32.47
2018-05-31T16:58:42.009Z,32.89
2018-05-31T17:01:10.192Z,34.65
2018-05-31T17:03:37.797Z,37.10
2018-05-31T17:06:08.143Z,37.84
2018-05-31T17:08:35.909Z,39.14
2018-05-31T17:11:04.313Z,40.76
2018-05-31T17:13:32.746Z,41.53
2018-05-31T17:16:00.279Z,41.55
2018-05-31T17:18:27.864Z,41.17
2018-05-31T17:20:55.407Z,41.26
2018-05-31T17:23:22.993Z,41.73
2018-05-31T17:25:50.526Z,43.10
2018-05-31T17:28:18.056Z,43.48
2018-05-31T17:30:46.876Z,43.54
2018-05-31T17:33:15.400Z,44.54
2018-05-31T17:35:44.755Z,44.71
2018-05-31T17:38:12.294Z,45.91
2018-05-31T17:40:39.977Z,46.32
2018-05-31T17:43:08.362Z,46.32
2018-05-31T17:45:35.954Z,46.45
2018-05-31T17:48:05.145Z,46.26
2018-05-31T17:50:32.680Z,47.20
2018-05-31T17:53:01.041Z,47.84
2018-05-31T17:55:31.225Z,48.34
2018-05-31T17:57:58.816Z,47.86
2018-05-31T18:00:26.348Z,47.94
2018-05-31T18:02:53.895Z,48.67
2018-05-31T18:05:21.436Z,48.77
2018-05-31T18:07:48.974Z,48.60
2018-05-31T18:10:17.164Z,49.01
2018-05-31T18:12:45.107Z,48.95
2018-05-31T18:15:12.693Z,48.92
2018-05-31T18:17:40.289Z,48.51
2018-05-31T18:20:09.067Z,48.49
2018-05-31T18:22:37.569Z,48.26
2018-05-31T18:25:05.221Z,48.08
2018-05-31T18:27:32.783Z,48.38
2018-05-31T18:30:00.402Z,48.08
2018-05-31T18:32:30.573Z,48.26
2018-05-31T18:34:58.488Z,48.38
2018-05-31T18:37:26.085Z,48.23
2018-05-31T18:39:53.719Z,48.49
2018-05-31T18:42:21.297Z,48.64
2018-05-31T18:44:48.841Z,48.41
2018-05-31T18:47:16.490Z,49.06
2018-05-31T18:49:44.145Z,48.83
2018-05-31T18:52:11.690Z,48.36
2018-05-31T18:54:39.345Z,48.91
2018-05-31T18:57:06.891Z,48.49
2018-05-31T18:59:34.544Z,48.55
2018-05-31T19:02:02.092Z,48.54
2018-05-31T19:04:29.638Z,48.75
2018-05-31T19:06:57.285Z,48.78
2018-05-31T19:09:30.388Z,48.91
2018-05-31T19:11:57.977Z,48.95
2018-05-31T19:14:25.621Z,49.06
2018-05-31T19:16:53.222Z,49.25
2018-05-31T19:19:26.330Z,49.13
2018-05-31T19:21:53.933Z,49.17
2018-05-31T19:24:27.059Z,49.09
2018-05-31T19:26:54.641Z,49.31
2018-05-31T19:29:22.237Z,49.67
2018-05-31T19:31:49.868Z,49.05
2018-05-31T19:34:17.515Z,49.02
2018-05-31T19:36:50.754Z,49.08
2018-05-31T19:39:18.301Z,48.94
2018-05-31T19:41:45.850Z,48.82
2018-05-31T19:44:19.116Z,48.60
2018-05-31T19:46:46.761Z,48.40
2018-05-31T19:49:14.300Z,48.43
2018-05-31T19:51:47.656Z,48.78
2018-05-31T19:54:15.197Z,48.83
2018-05-31T19:56:42.843Z,48.44
2018-05-31T19:59:15.813Z,47.78
2018-05-31T20:01:49.017Z,47.67
2018-05-31T20:04:16.622Z,47.78
2018-05-31T20:06:44.160Z,47.37
2018-05-31T20:09:11.764Z,48.33
2018-05-31T20:11:39.308Z,49.75
2018-05-31T20:14:06.893Z,50.18
2018-05-31T20:16:34.477Z,51.04
2018-05-31T20:19:02.093Z,51.35
2018-05-31T20:21:29.598Z,51.71
2018-05-31T20:23:57.140Z,51.68
2018-05-31T20:26:24.746Z,52.02
2018-05-31T20:28:52.285Z,52.15
2018-05-31T20:31:19.877Z,52.55
2018-05-31T20:33:47.463Z,52.88
2018-05-31T20:36:15.006Z,52.88
2018-05-31T20:38:42.557Z,53.38
2018-05-31T20:41:10.109Z,54.82
2018-05-31T20:43:37.767Z,54.63
2018-05-31T20:46:05.430Z,54.97
2018-05-31T20:48:33.025Z,55.54
2018-05-31T20:51:00.568Z,55.58
2018-05-31T20:53:28.101Z,55.32
2018-05-31T20:55:55.645Z,55.18
2018-05-31T20:58:23.180Z,55.63
2018-05-31T21:00:50.724Z,56.96
2018-05-31T21:03:18.256Z,56.42
2018-05-31T21:05:45.910Z,56.53
2018-05-31T21:08:13.440Z,57.52
2018-05-31T21:10:40.977Z,57.70
2018-05-31T21:13:08.581Z,57.96
2018-05-31T21:15:36.179Z,57.78
2018-05-31T21:18:03.721Z,58.41
2018-05-31T21:20:31.384Z,58.86
2018-05-31T21:22:58.993Z,59.28
2018-05-31T21:25:26.522Z,59.57
2018-05-31T21:27:54.108Z,59.61
2018-05-31T21:30:21.713Z,59.65
2018-05-31T21:32:49.241Z,59.43
2018-05-31T21:35:16.953Z,60.36
2018-05-31T21:37:44.553Z,60.95
2018-05-31T21:40:12.148Z,61.15
2018-05-31T21:42:39.764Z,61.14
2018-05-31T21:45:07.309Z,61.24
2018-05-31T21:47:34.980Z,60.43
2018-05-31T21:50:02.523Z,61.51
2018-05-31T21:52:30.120Z,61.03
2018-05-31T21:54:57.662Z,60.43
2018-05-31T21:57:25.257Z,60.57
2018-05-31T21:59:52.800Z,60.97
2018-05-31T22:02:20.341Z,61.45
2018-05-31T22:04:47.924Z,61.52
2018-05-31T22:07:15.519Z,61.49
2018-05-31T22:09:43.118Z,61.26
2018-05-31T22:12:10.929Z,61.06
2018-05-31T22:14:38.472Z,61.21
2018-05-31T22:17:06.091Z,59.71
2018-05-31T22:19:33.641Z,59.10
2018-05-31T22:22:01.225Z,59.20
2018-05-31T22:24:28.814Z,59.41
2018-05-31T22:26:56.412Z,59.18
2018-05-31T22:29:24.044Z,59.20
2018-05-31T22:31:51.644Z,59.67
2018-05-31T22:34:19.205Z,59.87
2018-05-31T22:36:46.854Z,59.53
2018-05-31T22:39:14.513Z,59.83
2018-05-31T22:41:42.060Z,60.03
2018-05-31T22:44:09.597Z,60.44
2018-05-31T22:46:37.201Z,61.09
2018-05-31T22:49:04.736Z,61.26
2018-05-31T22:51:32.341Z,61.22
2018-05-31T22:53:59.950Z,61.41
2018-05-31T22:56:27.650Z,61.73
2018-05-31T22:58:55.306Z,62.88
2018-05-31T23:01:22.913Z,63.03
2018-05-31T23:03:50.517Z,64.17
2018-05-31T23:06:18.127Z,65.23
2018-05-31T23:08:45.736Z,65.49
2018-05-31T23:11:13.277Z,65.92
2018-05-31T23:13:40.916Z,65.61
2018-05-31T23:16:08.513Z,65.56
2018-05-31T23:18:36.117Z,65.61
2018-05-31T23:21:03.735Z,64.20
2018-05-31T23:23:31.342Z,63.14
2018-05-31T23:25:58.887Z,63.48
2018-05-31T23:28:26.436Z,63.31
2018-05-31T23:30:54.109Z,63.31
2018-05-31T23:33:21.758Z,64.44
2018-05-31T23:35:49.437Z,63.76
2018-05-31T23:38:16.999Z,63.21
2018-05-31T23:40:44.544Z,63.66
2018-05-31T23:43:12.080Z,64.41
2018-05-31T23:45:39.609Z,64.52
2018-05-31T23:48:07.299Z,64.43
2018-05-31T23:50:34.854Z,63.68
2018-05-31T23:53:02.398Z,63.53
2018-05-31T23:55:29.951Z,64.34
2018-05-31T23:57:57.546Z,64.24
